KARR

Aurora Municipal Airport

Chicago/Aurora, Illinois, USA
METAR KARR 162352Z 08004KT 10SM CLR 00/M05 A2998 RMK AO2 SLP159 T00001050 10083 20000 51025
Observed Flight Rules
Dec-16 @ 23:52 UTC (25 minutes ago) Visual Flight Rules
Wind Visibility Clouds
80° at 4 knots 10 miles
  • Clear skies
Temperatures Readings
Current 0°C / 32°F
Dewpoint -5°C / 23°F
Humidity 69%
Altimeter 29.98" Hg
Pressure 1015.9 hPa
Elevation 215
METAR KARR 162352Z 08004KT 10SM CLR 00/M05 A2998 RMK AO2 SLP159 T00001050 10083 20000 51025
Observed Flight Rules
Dec-16 @ 23:52 UTC
(25 minutes ago)
VFR
Wind Visibility
80° at 4 knots 10 miles
Clouds
  • Clear skies
Temperature Dewpoint
0°C / 32°F -5°C / 23°F
Humidity Altimeter Pressure
69% 29.98" Hg 1015.9 hPa